Time;durP1;ratioP1;P1;durP2;ratioP2;P2;SDS_P1;SDS_P2;PMS_P1;PMS_P2;Temp;Humidity;BMP_temperature;BMP_pressure;BME280_temperature;BME280_humidity;BME280_pressure;Samples;Min_cycle;Max_cycle;Signal;HPM_P1;HPM_P2
2021/05/25 00:00:38;;;;;;;1.00;1.00;;;12.70;94.10;;;;;;5028004;28;20464;-79
2021/05/25 00:03:06;;;;;;;1.00;0.80;;;12.70;94.30;;;;;;5029311;28;20484;-80
2021/05/25 00:05:34;;;;;;;2.63;0.87;;;12.70;94.30;;;;;;5020976;28;20448;-79
2021/05/25 00:08:02;;;;;;;1.50;0.57;;;12.60;94.30;;;;;;5026447;28;20529;-80
2021/05/25 00:10:30;;;;;;;0.90;0.90;;;12.50;94.30;;;;;;5029015;28;20544;-79
2021/05/25 00:12:58;;;;;;;1.23;0.73;;;12.60;94.30;;;;;;5043029;28;20497;-80
2021/05/25 00:15:27;;;;;;;1.97;0.77;;;12.60;93.90;;;;;;5027260;28;20440;-80
2021/05/25 00:17:54;;;;;;;1.17;0.80;;;12.60;94.00;;;;;;5028823;28;20480;-80
2021/05/25 00:20:23;;;;;;;1.10;0.70;;;12.60;94.20;;;;;;5047893;28;20429;-78
2021/05/25 00:22:50;;;;;;;1.60;0.73;;;12.50;94.30;;;;;;5048548;28;20488;-79
2021/05/25 00:25:18;;;;;;;1.90;0.77;;;12.40;94.60;;;;;;5045665;28;20469;-79
2021/05/25 00:27:46;;;;;;;2.00;0.70;;;12.50;94.90;;;;;;5045397;28;20457;-78
2021/05/25 00:30:15;;;;;;;0.63;0.53;;;12.60;94.70;;;;;;5046552;28;20464;-78
2021/05/25 00:32:43;;;;;;;0.90;0.60;;;12.50;94.30;;;;;;5011394;28;20472;-80
2021/05/25 00:35:11;;;;;;;1.10;0.53;;;12.50;94.00;;;;;;5036419;28;20437;-81
2021/05/25 00:37:38;;;;;;;1.23;0.60;;;12.60;93.90;;;;;;5019667;28;20505;-79
2021/05/25 00:40:07;;;;;;;0.67;0.57;;;12.40;93.50;;;;;;5037434;28;20477;-80
2021/05/25 00:42:35;;;;;;;1.10;0.77;;;12.20;93.90;;;;;;5028555;28;20477;-80
2021/05/25 00:45:05;;;;;;;0.50;0.50;;;12.50;93.40;;;;;;5025172;28;20485;-79
2021/05/25 00:47:36;;;;;;;1.70;0.83;;;12.40;92.60;;;;;;5026944;28;20495;-80
2021/05/25 00:50:13;;;;;;;1.90;0.60;;;12.30;93.00;;;;;;5026563;28;20449;-80
2021/05/25 00:52:46;;;;;;;0.50;0.40;;;12.40;92.90;;;;;;5027312;28;20476;-80
2021/05/25 00:55:34;;;;;;;0.90;0.80;;;12.40;92.60;;;;;;5025885;28;20473;-81
2021/05/25 00:58:03;;;;;;;0.57;0.50;;;12.30;92.40;;;;;;5028217;28;20479;-81
2021/05/25 01:00:44;;;;;;;0.73;0.60;;;12.30;92.60;;;;;;5026922;28;20461;-80
2021/05/25 01:03:14;;;;;;;0.70;0.40;;;12.10;92.70;;;;;;5025528;28;20491;-81
2021/05/25 01:05:41;;;;;;;0.60;0.50;;;12.30;92.50;;;;;;5005784;28;20510;-80
2021/05/25 01:08:09;;;;;;;0.60;0.50;;;12.20;92.60;;;;;;5030527;28;20445;-80
2021/05/25 01:10:38;;;;;;;1.00;0.50;;;12.10;92.60;;;;;;5034668;28;20437;-81
2021/05/25 01:13:09;;;;;;;1.07;0.50;;;12.10;92.60;;;;;;5046693;28;20446;-80
2021/05/25 01:15:37;;;;;;;0.47;0.40;;;12.10;92.80;;;;;;5051331;28;20446;-78
2021/05/25 01:18:05;;;;;;;2.00;0.50;;;11.80;92.90;;;;;;5038892;28;20437;-81
2021/05/25 01:20:35;;;;;;;0.60;0.50;;;11.90;92.80;;;;;;5030715;28;20504;-79
2021/05/25 01:23:03;;;;;;;0.47;0.47;;;11.90;92.90;;;;;;5054441;28;20476;-78
2021/05/25 01:25:30;;;;;;;1.13;0.60;;;11.90;92.70;;;;;;5048922;28;20455;-81
2021/05/25 01:28:03;;;;;;;0.80;0.60;;;11.90;92.60;;;;;;5013389;28;21151;-81
2021/05/25 01:30:33;;;;;;;0.50;0.47;;;11.80;92.80;;;;;;5030236;28;20434;-81
2021/05/25 01:33:01;;;;;;;0.40;0.40;;;11.80;92.90;;;;;;5011538;28;20464;-81
2021/05/25 01:35:28;;;;;;;0.70;0.43;;;11.60;93.30;;;;;;5027080;28;20449;-80
2021/05/25 01:37:56;;;;;;;2.97;0.80;;;11.70;93.00;;;;;;5009084;28;20464;-80
2021/05/25 01:40:23;;;;;;;0.30;0.30;;;11.60;93.30;;;;;;5027779;28;20445;-80
2021/05/25 01:42:50;;;;;;;2.07;0.50;;;11.90;93.00;;;;;;5031454;28;20465;-78
2021/05/25 01:45:22;;;;;;;0.93;0.53;;;11.70;92.70;;;;;;5009381;28;20468;-81
2021/05/25 01:47:50;;;;;;;1.63;0.40;;;11.80;92.70;;;;;;5027789;28;20454;-80
2021/05/25 01:50:18;;;;;;;0.90;0.40;;;11.80;92.50;;;;;;5028172;28;20442;-80
2021/05/25 01:52:52;;;;;;;2.40;0.50;;;11.80;92.60;;;;;;5028728;28;20461;-79
2021/05/25 01:55:33;;;;;;;0.80;0.40;;;11.70;92.70;;;;;;5027728;28;20472;-81
2021/05/25 01:58:17;;;;;;;0.60;0.40;;;11.60;93.00;;;;;;5008961;28;20457;-81
2021/05/25 02:00:47;;;;;;;0.40;0.40;;;11.70;93.00;;;;;;5028837;28;20457;-80
2021/05/25 02:03:15;;;;;;;0.40;0.40;;;11.70;93.00;;;;;;5028522;28;20944;-82
2021/05/25 02:05:46;;;;;;;0.90;0.50;;;11.70;93.00;;;;;;5029965;28;20446;-80
2021/05/25 02:08:12;;;;;;;0.80;0.70;;;11.60;93.30;;;;;;5031390;28;20535;-82
2021/05/25 02:10:44;;;;;;;0.97;0.50;;;11.60;93.60;;;;;;5013095;28;20443;-81
2021/05/25 02:13:15;;;;;;;0.40;0.40;;;11.50;94.10;;;;;;5033142;28;20451;-81
2021/05/25 02:15:44;;;;;;;1.43;0.60;;;11.50;94.40;;;;;;5030250;28;20449;-81
2021/05/25 02:18:23;;;;;;;1.07;0.50;;;11.50;94.70;;;;;;5027703;28;20951;-81
2021/05/25 02:20:53;;;;;;;1.13;0.53;;;11.50;94.80;;;;;;5029364;28;20464;-81
2021/05/25 02:23:20;;;;;;;0.50;0.47;;;11.40;94.80;;;;;;5028813;28;21592;-81
2021/05/25 02:25:47;;;;;;;0.43;0.43;;;11.40;94.90;;;;;;5029817;28;20729;-82
2021/05/25 02:28:14;;;;;;;0.60;0.60;;;11.40;94.80;;;;;;5029895;28;20461;-83
2021/05/25 02:30:42;;;;;;;0.70;0.50;;;11.50;94.90;;;;;;5049732;28;20437;-79
2021/05/25 02:33:11;;;;;;;0.73;0.57;;;11.50;94.80;;;;;;5050259;28;20430;-79
2021/05/25 02:35:39;;;;;;;1.17;0.60;;;11.50;94.80;;;;;;5047981;28;20464;-79
2021/05/25 02:38:08;;;;;;;1.50;1.10;;;11.50;94.90;;;;;;5049246;28;20444;-79
2021/05/25 02:40:35;;;;;;;0.50;0.50;;;11.40;95.00;;;;;;5049261;28;20472;-78
2021/05/25 02:43:03;;;;;;;0.60;0.60;;;11.50;94.90;;;;;;5048137;28;20468;-79
2021/05/25 02:45:31;;;;;;;2.47;0.80;;;11.40;95.20;;;;;;5029764;28;20456;-79
2021/05/25 02:47:58;;;;;;;1.43;0.47;;;11.30;95.10;;;;;;5027916;28;20441;-77
2021/05/25 02:50:25;;;;;;;1.10;0.57;;;11.50;95.30;;;;;;5046084;28;20436;-78
2021/05/25 02:52:53;;;;;;;0.60;0.50;;;11.50;95.10;;;;;;5033365;28;20449;-80
2021/05/25 02:55:26;;;;;;;0.83;0.50;;;11.30;95.30;;;;;;5026833;28;20472;-80
2021/05/25 02:57:53;;;;;;;1.10;0.57;;;11.40;95.30;;;;;;5031633;28;20451;-79
2021/05/25 03:00:23;;;;;;;1.03;0.83;;;11.40;95.10;;;;;;5043873;28;20437;-80
2021/05/25 03:02:50;;;;;;;0.97;0.40;;;11.40;95.10;;;;;;5046278;28;20471;-79
2021/05/25 03:05:19;;;;;;;1.30;0.60;;;11.50;95.10;;;;;;5045962;28;21803;-79
2021/05/25 03:07:46;;;;;;;0.73;0.70;;;11.50;95.00;;;;;;5027678;28;20448;-79
2021/05/25 03:10:16;;;;;;;1.60;0.63;;;11.30;95.10;;;;;;5048667;28;20453;-80
2021/05/25 03:12:43;;;;;;;0.97;0.67;;;11.50;95.00;;;;;;5049062;28;20452;-80
2021/05/25 03:15:17;;;;;;;2.40;0.60;;;11.50;95.00;;;;;;5048638;28;21274;-79
2021/05/25 03:17:44;;;;;;;2.00;0.50;;;11.60;94.80;;;;;;5047889;28;20497;-81
2021/05/25 03:20:13;;;;;;;3.23;0.60;;;11.50;94.70;;;;;;5037880;28;20429;-82
2021/05/25 03:22:41;;;;;;;0.70;0.70;;;11.60;94.60;;;;;;5030153;28;20656;-80
2021/05/25 03:25:09;;;;;;;0.80;0.70;;;11.70;94.50;;;;;;5010875;28;20465;-81
2021/05/25 03:27:36;;;;;;;0.80;0.70;;;11.70;94.50;;;;;;5009002;28;20465;-81
2021/05/25 03:30:09;;;;;;;0.50;0.50;;;11.70;94.60;;;;;;5028143;28;21070;-80
2021/05/25 03:32:36;;;;;;;0.60;0.60;;;11.50;94.80;;;;;;5027026;28;20441;-81
2021/05/25 03:35:06;;;;;;;0.70;0.70;;;11.50;95.30;;;;;;5025416;28;20484;-82
2021/05/25 03:37:34;;;;;;;0.97;0.70;;;11.60;95.00;;;;;;5008522;28;20457;-82
2021/05/25 03:40:00;;;;;;;3.30;0.77;;;11.60;95.10;;;;;;5035851;28;20437;-80
2021/05/25 03:42:27;;;;;;;0.67;0.53;;;11.50;95.30;;;;;;5027284;28;20461;-80
2021/05/25 03:44:54;;;;;;;0.73;0.60;;;11.50;95.40;;;;;;5025781;28;20473;-80
2021/05/25 03:47:21;;;;;;;0.90;0.60;;;11.40;95.30;;;;;;5023994;28;20445;-80
2021/05/25 03:49:48;;;;;;;0.87;0.53;;;11.40;95.80;;;;;;5034558;28;20455;-80
2021/05/25 03:52:15;;;;;;;0.53;0.50;;;11.50;95.50;;;;;;5044989;28;20505;-80
2021/05/25 03:54:55;;;;;;;0.70;0.50;;;11.60;95.20;;;;;;5040971;28;20487;-80
2021/05/25 03:59:57;;;;;;;1.47;0.70;;;11.50;95.50;;;;;;5026620;28;20587;-82
2021/05/25 04:02:24;;;;;;;0.83;0.50;;;11.50;95.90;;;;;;5025656;28;20450;-82
2021/05/25 04:04:51;;;;;;;1.43;0.77;;;11.50;95.80;;;;;;5010848;28;20494;-80
2021/05/25 04:07:17;;;;;;;0.50;0.50;;;11.40;96.00;;;;;;5034232;28;20441;-80
2021/05/25 04:09:44;;;;;;;1.27;0.60;;;11.40;96.20;;;;;;5030821;28;20437;-79
2021/05/25 04:12:11;;;;;;;0.87;0.70;;;11.50;96.30;;;;;;5030580;28;20472;-79
2021/05/25 04:14:37;;;;;;;1.00;0.50;;;11.50;96.40;;;;;;5029979;28;20568;-78
2021/05/25 04:17:04;;;;;;;1.43;0.70;;;11.50;96.50;;;;;;5029201;28;20442;-81
2021/05/25 04:19:31;;;;;;;1.33;0.70;;;11.40;96.70;;;;;;5024409;28;21314;-81
2021/05/25 04:21:58;;;;;;;1.30;0.77;;;11.40;97.10;;;;;;5027767;28;20598;-79
2021/05/25 04:24:24;;;;;;;0.80;0.50;;;11.40;97.20;;;;;;5027224;28;20492;-82
2021/05/25 04:26:51;;;;;;;1.30;0.50;;;11.40;97.40;;;;;;5027291;28;20437;-81
2021/05/25 04:29:18;;;;;;;2.20;0.80;;;11.30;97.80;;;;;;5025663;28;20457;-80
2021/05/25 04:31:44;;;;;;;1.10;0.40;;;11.20;98.20;;;;;;5027312;28;20476;-81
2021/05/25 04:34:11;;;;;;;0.93;0.60;;;11.30;98.30;;;;;;5026247;28;20496;-80
2021/05/25 04:36:38;;;;;;;0.60;0.60;;;11.30;98.50;;;;;;5025645;28;20538;-78
2021/05/25 04:39:04;;;;;;;0.90;0.70;;;11.20;99.00;;;;;;5027327;28;20465;-82
2021/05/25 04:41:31;;;;;;;1.17;0.73;;;11.20;98.80;;;;;;5024448;28;20832;-81
2021/05/25 04:43:58;;;;;;;1.17;0.73;;;11.10;98.80;;;;;;5012965;28;20498;-79
2021/05/25 04:46:24;;;;;;;0.97;0.83;;;11.20;99.50;;;;;;5010181;28;20462;-81
2021/05/25 04:48:51;;;;;;;1.57;0.80;;;11.20;99.20;;;;;;5030485;28;20444;-79
2021/05/25 04:51:18;;;;;;;1.33;0.70;;;11.10;99.70;;;;;;5034029;28;20528;-80
2021/05/25 04:53:44;;;;;;;1.03;0.67;;;11.20;99.90;;;;;;5034530;28;20477;-80
2021/05/25 04:56:11;;;;;;;1.40;0.70;;;11.30;99.80;;;;;;5040314;28;20453;-80
2021/05/25 04:58:38;;;;;;;1.73;0.57;;;11.40;99.60;;;;;;5048286;28;20524;-80
2021/05/25 05:01:04;;;;;;;0.90;0.80;;;11.40;99.40;;;;;;5043444;28;20461;-81
2021/05/25 05:03:31;;;;;;;0.70;0.70;;;11.50;99.20;;;;;;5036475;28;20477;-81
2021/05/25 05:05:57;;;;;;;1.13;1.00;;;11.60;99.00;;;;;;5048363;28;20452;-80
2021/05/25 05:08:24;;;;;;;2.10;0.60;;;11.50;99.10;;;;;;5049320;28;20449;-80
2021/05/25 05:10:51;;;;;;;1.10;0.77;;;11.50;98.90;;;;;;5041969;28;20803;-81
2021/05/25 05:13:20;;;;;;;1.53;1.03;;;11.40;99.10;;;;;;5035678;28;20480;-81
2021/05/25 05:15:47;;;;;;;2.47;0.60;;;11.30;99.50;;;;;;5033764;28;21554;-82
2021/05/25 05:18:13;;;;;;;1.17;0.77;;;11.50;99.90;;;;;;5015846;28;20457;-80
2021/05/25 05:20:40;;;;;;;3.93;1.30;;;11.40;99.90;;;;;;5030508;28;20451;-80
2021/05/25 05:23:08;;;;;;;2.30;0.60;;;11.40;99.90;;;;;;5034137;28;20493;-82
2021/05/25 05:25:35;;;;;;;2.00;0.87;;;11.50;99.90;;;;;;5031439;28;20870;-79
2021/05/25 05:28:02;;;;;;;1.73;0.80;;;11.50;99.90;;;;;;5029080;28;20468;-81
2021/05/25 05:30:28;;;;;;;0.90;0.87;;;11.40;99.90;;;;;;5029126;28;20461;-81
2021/05/25 05:32:55;;;;;;;0.80;0.60;;;11.30;99.90;;;;;;5027142;28;20458;-79
2021/05/25 05:35:22;;;;;;;1.03;0.83;;;11.40;99.90;;;;;;5025926;28;20844;-81
2021/05/25 05:37:48;;;;;;;2.20;0.90;;;11.40;99.90;;;;;;5027496;28;20441;-81
2021/05/25 05:40:15;;;;;;;1.87;0.77;;;11.50;99.90;;;;;;5029125;28;20445;-80
2021/05/25 05:43:02;;;;;;;1.13;0.90;;;11.50;99.90;;;;;;5026581;28;20946;-80
2021/05/25 05:45:30;;;;;;;1.33;0.60;;;11.60;99.90;;;;;;5007454;28;20464;-80
2021/05/25 05:47:56;;;;;;;1.30;0.70;;;11.60;99.90;;;;;;5029610;28;20460;-79
2021/05/25 05:50:23;;;;;;;0.70;0.60;;;11.40;99.90;;;;;;5030481;28;20457;-79
2021/05/25 05:52:50;;;;;;;1.53;0.77;;;11.50;99.90;;;;;;5031751;28;22567;-79
2021/05/25 05:55:18;;;;;;;1.00;0.73;;;11.50;99.90;;;;;;5031384;28;20468;-79
2021/05/25 05:57:47;;;;;;;0.87;0.80;;;11.40;99.90;;;;;;5032701;28;20461;-82
2021/05/25 06:00:15;;;;;;;1.00;0.80;;;11.50;99.90;;;;;;5027895;28;20472;-80
2021/05/25 06:02:43;;;;;;;0.70;0.57;;;11.40;99.90;;;;;;5026725;28;20466;-80
2021/05/25 06:05:11;;;;;;;0.90;0.90;;;11.40;99.90;;;;;;5025405;28;20517;-81
2021/05/25 06:07:38;;;;;;;0.77;0.70;;;11.50;99.90;;;;;;5026993;28;20460;-81
2021/05/25 06:10:07;;;;;;;1.27;0.80;;;11.50;99.90;;;;;;5026659;28;20459;-80
2021/05/25 06:12:34;;;;;;;1.37;0.60;;;11.50;99.90;;;;;;5027253;28;20786;-81
2021/05/25 06:15:02;;;;;;;1.17;0.67;;;11.60;99.90;;;;;;5026333;28;20492;-82
2021/05/25 06:17:29;;;;;;;0.80;0.70;;;11.60;99.90;;;;;;5026690;28;20487;-81
2021/05/25 06:19:55;;;;;;;1.70;0.73;;;11.70;99.90;;;;;;5008514;28;20489;-82
2021/05/25 06:22:22;;;;;;;1.93;0.93;;;11.80;99.90;;;;;;5011691;28;20468;-80
2021/05/25 06:24:50;;;;;;;2.47;0.90;;;11.80;99.90;;;;;;5038523;28;20488;-79
2021/05/25 06:27:17;;;;;;;1.03;0.70;;;11.70;99.90;;;;;;5036254;28;20549;-79
2021/05/25 06:29:44;;;;;;;0.87;0.80;;;11.70;99.90;;;;;;5032980;28;22161;-78
2021/05/25 06:32:12;;;;;;;1.60;0.60;;;11.60;99.90;;;;;;5029215;28;20453;-80
2021/05/25 06:34:38;;;;;;;1.77;0.50;;;11.90;99.90;;;;;;5025824;28;20500;-81
2021/05/25 06:37:05;;;;;;;0.97;0.87;;;12.00;99.40;;;;;;5031217;28;20449;-80
2021/05/25 06:39:32;;;;;;;0.70;0.70;;;11.90;99.70;;;;;;5041398;28;20460;-80
2021/05/25 06:41:59;;;;;;;2.00;0.90;;;11.70;99.90;;;;;;5042890;28;20453;-80
2021/05/25 06:44:26;;;;;;;0.80;0.70;;;11.60;99.90;;;;;;5038068;28;20477;-81
2021/05/25 06:46:52;;;;;;;0.50;0.50;;;11.90;99.90;;;;;;5039066;28;20441;-78
2021/05/25 06:49:19;;;;;;;1.10;0.60;;;11.90;98.60;;;;;;5036552;28;20460;-82
2021/05/25 06:51:46;;;;;;;5.00;0.80;;;11.80;98.60;;;;;;5029800;28;20464;-80
2021/05/25 06:54:13;;;;;;;1.87;0.80;;;11.90;99.20;;;;;;5026302;28;20484;-81
2021/05/25 06:56:40;;;;;;;1.37;0.60;;;11.80;99.50;;;;;;5006582;28;20527;-81
2021/05/25 06:59:07;;;;;;;0.70;0.70;;;11.80;99.70;;;;;;5026140;28;20493;-83
2021/05/25 07:01:33;;;;;;;0.50;0.50;;;12.00;99.40;;;;;;5028259;28;20453;-81
2021/05/25 07:04:00;;;;;;;0.80;0.70;;;12.00;99.50;;;;;;5027608;28;20477;-81
2021/05/25 07:06:27;;;;;;;0.57;0.50;;;12.10;99.10;;;;;;5032214;28;20453;-81
2021/05/25 07:08:54;;;;;;;0.80;0.53;;;12.00;98.90;;;;;;5026610;28;21073;-80
2021/05/25 07:11:21;;;;;;;0.53;0.53;;;11.90;99.00;;;;;;5025685;28;20449;-81
2021/05/25 07:13:48;;;;;;;0.57;0.50;;;11.80;98.60;;;;;;5028391;28;20959;-81
2021/05/25 07:16:15;;;;;;;1.33;0.90;;;11.70;98.90;;;;;;5005640;28;20468;-80
2021/05/25 07:18:42;;;;;;;0.60;0.60;;;11.70;99.40;;;;;;5025009;28;20457;-80
2021/05/25 07:21:09;;;;;;;1.23;1.00;;;11.70;99.60;;;;;;5025946;28;20500;-82
2021/05/25 07:23:36;;;;;;;0.70;0.70;;;11.90;99.50;;;;;;5006901;28;20481;-81
2021/05/25 07:26:04;;;;;;;0.70;0.50;;;12.00;99.50;;;;;;5024931;28;20442;-81
2021/05/25 07:28:31;;;;;;;0.70;0.60;;;12.00;98.80;;;;;;5027434;28;20464;-81
2021/05/25 07:30:58;;;;;;;1.43;0.83;;;11.80;99.50;;;;;;5027170;28;20481;-82
2021/05/25 07:33:26;;;;;;;1.37;0.80;;;11.60;99.90;;;;;;5026604;28;20477;-80
2021/05/25 07:35:53;;;;;;;1.00;0.50;;;11.80;99.90;;;;;;5029333;28;20556;-83
2021/05/25 07:38:21;;;;;;;0.83;0.60;;;11.70;99.90;;;;;;5029384;28;20552;-81
2021/05/25 07:40:48;;;;;;;1.07;0.60;;;11.40;99.90;;;;;;5029870;28;20458;-81
2021/05/25 07:43:14;;;;;;;1.13;0.50;;;11.20;99.90;;;;;;5035645;28;21068;-82
2021/05/25 07:45:43;;;;;;;0.73;0.47;;;11.10;99.90;;;;;;5038098;28;20450;-80
2021/05/25 07:48:09;;;;;;;1.23;0.60;;;11.10;99.90;;;;;;5028141;28;20472;-79
2021/05/25 07:50:36;;;;;;;1.40;0.70;;;11.00;99.90;;;;;;5048798;28;20464;-78
2021/05/25 07:53:03;;;;;;;2.63;0.70;;;11.00;99.90;;;;;;4697122;28;10000349;-81
2021/05/25 07:55:31;;;;;;;0.60;0.53;;;11.00;99.90;;;;;;5018317;28;20241;-83
2021/05/25 07:57:59;;;;;;;2.07;0.77;;;11.10;99.90;;;;;;5032050;28;20464;-82
2021/05/25 08:00:27;;;;;;;0.60;0.53;;;11.20;99.90;;;;;;5025627;28;20445;-83
2021/05/25 08:02:54;;;;;;;1.83;0.70;;;11.20;99.90;;;;;;5008039;28;20475;-80
2021/05/25 08:05:22;;;;;;;0.63;0.63;;;11.30;99.90;;;;;;5019212;28;20482;-80
2021/05/25 08:07:49;;;;;;;1.27;0.60;;;11.40;99.90;;;;;;5040261;28;20450;-78
2021/05/25 08:10:16;;;;;;;1.17;0.73;;;11.60;99.90;;;;;;5034168;28;20465;-79
2021/05/25 08:12:44;;;;;;;2.20;0.80;;;12.10;99.90;;;;;;5026621;28;20445;-79
2021/05/25 08:15:14;;;;;;;3.13;1.13;;;12.50;99.90;;;;;;5027774;28;20484;-81
2021/05/25 08:20:24;;;;;;;2.67;1.33;;;13.10;99.90;;;;;;5021834;28;20453;-80
2021/05/25 08:23:13;;;;;;;2.10;0.70;;;13.30;99.90;;;;;;5020691;28;20515;-82
2021/05/25 08:25:44;;;;;;;1.93;1.20;;;13.70;99.80;;;;;;5021471;28;20480;-80
2021/05/25 08:28:12;;;;;;;0.70;0.70;;;13.70;99.00;;;;;;5004263;28;20469;-81
2021/05/25 08:30:41;;;;;;;3.80;0.93;;;13.60;99.30;;;;;;5022041;28;20449;-79
2021/05/25 08:33:10;;;;;;;1.73;0.63;;;13.60;98.50;;;;;;5024478;28;20551;-83
2021/05/25 08:35:42;;;;;;;1.30;1.00;;;13.40;97.80;;;;;;5023394;28;20552;-81
2021/05/25 08:38:11;;;;;;;1.03;0.87;;;13.30;97.80;;;;;;5028821;28;20970;-80
2021/05/25 08:40:38;;;;;;;1.63;1.03;;;13.10;98.30;;;;;;5032552;28;20449;-81
2021/05/25 08:43:06;;;;;;;1.10;0.80;;;13.10;96.50;;;;;;5038287;28;20437;-80
2021/05/25 08:45:34;;;;;;;0.97;0.70;;;13.00;97.20;;;;;;5025847;28;20493;-81
2021/05/25 08:48:01;;;;;;;4.70;0.83;;;12.90;97.70;;;;;;5013194;28;20437;-81
2021/05/25 08:50:47;;;;;;;1.17;0.70;;;13.20;97.50;;;;;;5029870;28;20441;-80
2021/05/25 08:53:14;;;;;;;1.80;0.70;;;13.20;96.60;;;;;;5047604;28;20441;-80
2021/05/25 08:55:45;;;;;;;1.33;0.60;;;13.50;95.90;;;;;;5035467;28;20853;-82
2021/05/25 08:58:12;;;;;;;0.70;0.60;;;13.40;96.50;;;;;;5007663;28;20447;-79
2021/05/25 09:00:38;;;;;;;0.70;0.70;;;13.50;96.70;;;;;;5024201;28;20464;-80
2021/05/25 09:03:05;;;;;;;1.10;0.77;;;13.60;96.40;;;;;;5005406;28;20456;-80
2021/05/25 09:05:34;;;;;;;1.27;0.93;;;13.50;96.30;;;;;;5021339;28;20485;-79
2021/05/25 09:08:00;;;;;;;4.33;0.90;;;13.40;95.40;;;;;;5027029;28;20552;-81
2021/05/25 09:10:36;;;;;;;0.50;0.50;;;13.40;95.70;;;;;;5013010;28;20544;-80
2021/05/25 09:13:12;;;;;;;1.10;0.77;;;13.30;95.50;;;;;;5034576;28;20527;-80
2021/05/25 09:15:45;;;;;;;4.30;0.90;;;13.50;95.30;;;;;;5009056;28;20484;-84
2021/05/25 09:18:20;;;;;;;2.10;0.80;;;13.60;95.00;;;;;;5030808;28;20513;-82
2021/05/25 09:20:52;;;;;;;2.50;2.30;;;13.40;95.30;;;;;;5024688;28;21505;-81
2021/05/25 09:23:34;;;;;;;1.10;0.77;;;13.50;95.60;;;;;;5020274;28;20470;-83
2021/05/25 09:26:06;;;;;;;1.50;0.97;;;13.50;95.20;;;;;;5003526;28;20477;-83
2021/05/25 09:28:34;;;;;;;1.50;0.73;;;13.50;95.60;;;;;;5021739;28;20877;-83
2021/05/25 09:31:03;;;;;;;0.90;0.73;;;13.50;94.80;;;;;;5024130;28;20445;-83
2021/05/25 09:33:32;;;;;;;1.00;0.57;;;13.30;95.40;;;;;;5025087;28;20478;-82
2021/05/25 09:36:12;;;;;;;1.37;1.10;;;13.30;95.30;;;;;;5021560;28;20469;-84
2021/05/25 09:38:39;;;;;;;2.17;1.00;;;13.30;95.80;;;;;;5021534;28;20532;-83
2021/05/25 09:41:05;;;;;;;3.40;0.70;;;13.40;95.40;;;;;;5006384;28;20465;-83
2021/05/25 09:43:33;;;;;;;1.40;0.73;;;13.50;95.00;;;;;;5026063;28;20572;-81
2021/05/25 09:46:02;;;;;;;1.83;0.80;;;13.40;95.30;;;;;;5003275;28;20481;-81
2021/05/25 09:48:32;;;;;;;1.53;0.80;;;13.80;95.40;;;;;;5024032;28;20445;-81
2021/05/25 09:51:00;;;;;;;3.63;0.90;;;14.80;93.40;;;;;;5011956;28;20457;-80
2021/05/25 09:53:30;;;;;;;0.90;0.87;;;14.60;92.90;;;;;;5012709;28;20473;-82
2021/05/25 09:56:06;;;;;;;1.10;0.73;;;14.50;93.00;;;;;;5032505;28;20469;-81
2021/05/25 09:58:33;;;;;;;2.50;2.10;;;14.00;93.60;;;;;;5031544;28;21079;-81
2021/05/25 10:01:00;;;;;;;1.80;1.20;;;13.90;94.20;;;;;;5030946;28;20453;-81
2021/05/25 10:03:27;;;;;;;1.20;1.07;;;13.70;94.10;;;;;;5012088;28;20997;-81
2021/05/25 10:05:56;;;;;;;1.27;1.17;;;13.60;94.70;;;;;;5008717;28;20658;-80
2021/05/25 10:08:24;;;;;;;1.40;1.27;;;13.50;96.50;;;;;;5011207;28;20457;-82
2021/05/25 10:10:52;;;;;;;1.77;1.53;;;13.30;97.40;;;;;;5029371;28;20458;-79
2021/05/25 10:13:22;;;;;;;3.63;2.07;;;13.20;98.20;;;;;;5025936;28;20472;-81
2021/05/25 10:15:51;;;;;;;1.57;1.40;;;13.20;98.30;;;;;;5021789;28;20449;-81
2021/05/25 10:20:50;;;;;;;2.40;2.20;;;13.20;98.20;;;;;;5023848;28;20461;-81
2021/05/25 10:23:16;;;;;;;3.63;2.03;;;13.20;98.30;;;;;;5024616;28;20453;-82
2021/05/25 10:25:49;;;;;;;2.30;1.90;;;13.20;97.50;;;;;;5022915;28;20496;-82
2021/05/25 10:28:16;;;;;;;3.37;1.90;;;13.20;97.50;;;;;;5023028;28;20576;-82
2021/05/25 10:30:49;;;;;;;5.97;2.30;;;13.10;97.70;;;;;;5030132;28;20449;-82
2021/05/25 10:33:27;;;;;;;2.60;2.23;;;13.10;98.10;;;;;;5021336;28;20464;-82
2021/05/25 10:36:08;;;;;;;2.27;2.07;;;13.00;98.30;;;;;;5025236;28;20981;-81
2021/05/25 10:38:55;;;;;;;1.73;1.60;;;13.10;97.70;;;;;;5032895;28;20539;-82
2021/05/25 10:41:35;;;;;;;3.53;2.20;;;13.10;96.20;;;;;;5028268;28;20461;-82
2021/05/25 10:44:03;;;;;;;1.87;1.77;;;13.30;96.00;;;;;;5023150;28;21049;-83
2021/05/25 10:46:31;;;;;;;2.10;1.90;;;13.30;95.80;;;;;;5023569;28;20735;-80
2021/05/25 10:49:17;;;;;;;3.73;1.90;;;13.40;96.00;;;;;;5008826;28;20453;-81
2021/05/25 10:51:48;;;;;;;2.97;1.50;;;13.40;96.00;;;;;;5008775;28;20453;-80
2021/05/25 10:54:29;;;;;;;4.57;1.77;;;13.40;95.90;;;;;;5009409;28;20905;-81
2021/05/25 10:56:56;;;;;;;3.40;1.70;;;13.30;95.70;;;;;;5005281;28;20457;-80
2021/05/25 10:59:23;;;;;;;2.03;1.50;;;13.20;95.30;;;;;;5022313;28;20462;-82
2021/05/25 11:01:55;;;;;;;2.60;1.60;;;13.20;95.00;;;;;;5020479;28;20460;-81
2021/05/25 11:04:43;;;;;;;1.37;1.20;;;13.20;94.60;;;;;;5021673;28;21021;-82
2021/05/25 11:07:35;;;;;;;1.00;0.90;;;13.20;93.80;;;;;;5023339;28;20460;-79
2021/05/25 11:10:27;;;;;;;1.50;1.40;;;13.40;93.90;;;;;;5024927;28;20492;-82
2021/05/25 11:13:19;;;;;;;1.43;1.30;;;13.50;93.60;;;;;;5012195;28;20511;-81
2021/05/25 11:16:13;;;;;;;2.33;1.70;;;13.50;93.60;;;;;;5022828;28;20568;-80
2021/05/25 11:24:33;;;;;;;1.90;1.63;;;13.70;92.90;;;;;;5022343;28;20484;-81
2021/05/25 11:27:20;;;;;;;1.90;1.43;;;14.10;92.20;;;;;;5003478;28;20660;-82
2021/05/25 11:29:56;;;;;;;2.40;1.50;;;14.30;92.10;;;;;;5023337;28;20528;-82
2021/05/25 11:32:51;;;;;;;2.10;1.27;;;14.50;91.70;;;;;;5004898;28;20815;-79
2021/05/25 11:35:19;;;;;;;1.93;1.50;;;14.60;91.40;;;;;;5018248;28;20504;-81
2021/05/25 11:37:53;;;;;;;2.10;1.50;;;14.80;91.30;;;;;;5012395;28;20488;-82
2021/05/25 11:40:26;;;;;;;1.80;1.50;;;15.30;90.90;;;;;;5026023;28;20556;-83
2021/05/25 11:42:54;;;;;;;2.90;1.50;;;15.50;90.10;;;;;;5026976;28;20471;-81
2021/05/25 11:45:24;;;;;;;3.50;1.67;;;15.90;89.30;;;;;;5024208;28;21895;-81
2021/05/25 11:47:55;;;;;;;2.03;1.63;;;16.40;88.40;;;;;;5006829;28;20460;-80
2021/05/25 11:50:27;;;;;;;1.83;1.73;;;16.80;87.00;;;;;;5024925;28;20470;-81
2021/05/25 11:53:01;;;;;;;2.23;1.80;;;17.30;85.00;;;;;;5008854;28;20541;-81
2021/05/25 11:55:29;;;;;;;4.10;2.00;;;17.40;82.90;;;;;;5023368;28;20544;-83
2021/05/25 11:57:56;;;;;;;6.03;1.97;;;17.10;82.90;;;;;;5026335;28;20457;-82
2021/05/25 12:00:29;;;;;;;4.17;1.90;;;16.90;83.90;;;;;;5026439;28;20527;-81
2021/05/25 12:02:58;;;;;;;3.90;2.50;;;16.70;84.50;;;;;;5025208;28;20450;-81
2021/05/25 12:05:33;;;;;;;2.77;1.80;;;16.50;86.20;;;;;;5005398;28;20481;-82
2021/05/25 12:08:02;;;;;;;2.90;2.33;;;16.30;87.70;;;;;;5007914;28;20449;-78
2021/05/25 12:10:31;;;;;;;3.33;1.47;;;16.10;88.10;;;;;;5027051;28;20488;-81
2021/05/25 12:13:08;;;;;;;2.63;1.43;;;16.40;87.80;;;;;;5039921;28;20447;-79
2021/05/25 12:15:38;;;;;;;2.53;1.37;;;16.50;86.50;;;;;;5037930;28;20440;-80
2021/05/25 12:18:10;;;;;;;2.23;1.50;;;17.10;83.20;;;;;;5041253;28;20509;-80
2021/05/25 12:20:43;;;;;;;3.43;1.80;;;16.50;84.00;;;;;;5019438;28;20471;-81
2021/05/25 12:23:12;;;;;;;3.63;1.57;;;16.10;88.10;;;;;;5164937;22;20828;-80
2021/05/25 12:25:40;;;;;;;3.43;1.57;;;16.30;90.60;;;;;;5042632;28;21008;-83
2021/05/25 12:28:19;;;;;;;3.60;1.97;;;15.90;91.60;;;;;;5052785;28;20444;-82
2021/05/25 12:30:52;;;;;;;5.90;2.00;;;15.30;92.70;;;;;;5064974;28;20483;-80
2021/05/25 12:33:29;;;;;;;2.57;1.60;;;14.60;95.50;;;;;;5066401;28;20452;-81
2021/05/25 12:36:38;;;;;;;2.20;1.60;;;13.80;97.20;;;;;;5051329;28;21057;-82
2021/05/25 12:39:07;;;;;;;3.50;1.43;;;13.30;98.40;;;;;;5046171;28;20456;-82
2021/05/25 12:41:41;;;;;;;4.13;1.37;;;13.00;98.50;;;;;;5048716;28;20452;-81
2021/05/25 12:44:10;;;;;;;2.43;1.20;;;12.80;98.10;;;;;;5044839;28;20479;-83
2021/05/25 12:46:58;;;;;;;0.80;0.80;;;12.60;98.60;;;;;;5044274;28;20487;-81
2021/05/25 12:49:30;;;;;;;1.90;1.10;;;12.50;99.50;;;;;;5044617;28;20482;-82
2021/05/25 12:52:26;;;;;;;7.50;1.37;;;12.50;98.80;;;;;;5043805;28;20448;-81
2021/05/25 12:54:58;;;;;;;1.93;0.80;;;12.40;99.20;;;;;;5046284;28;20468;-80
2021/05/25 12:57:47;;;;;;;2.33;1.47;;;12.40;99.90;;;;;;5051737;28;20483;-80
2021/05/25 13:00:16;;;;;;;1.43;1.00;;;12.50;99.90;;;;;;5049655;28;20448;-82
2021/05/25 13:02:43;;;;;;;1.13;1.00;;;12.60;99.90;;;;;;5049805;28;20452;-80
2021/05/25 13:05:14;;;;;;;1.53;1.10;;;12.70;99.90;;;;;;5048053;28;20492;-80
2021/05/25 13:08:02;;;;;;;1.23;1.00;;;12.70;99.90;;;;;;5048177;28;20464;-82
2021/05/25 13:10:37;;;;;;;3.20;1.30;;;12.70;99.90;;;;;;5048744;28;20462;-79
2021/05/25 13:13:14;;;;;;;2.60;1.10;;;12.80;99.90;;;;;;5050597;28;20448;-79